createdAt,value
2023-03-16T00:00:14.332Z,101892.34
2023-03-16T00:03:37.599Z,101894.13
2023-03-16T00:06:59.724Z,101896.75
2023-03-16T00:10:27.660Z,101904.63
2023-03-16T00:13:49.599Z,101900.38
2023-03-16T00:17:19.294Z,101905.66
2023-03-16T00:20:42.004Z,101910.03
2023-03-16T00:24:04.113Z,101910.09
2023-03-16T00:27:27.148Z,101910.09
2023-03-16T00:30:49.065Z,101915.34
2023-03-16T00:34:11.033Z,101910.09
2023-03-16T00:37:34.302Z,101908.34
2023-03-16T00:40:56.181Z,101917.13
2023-03-16T00:44:19.293Z,101917.13
2023-03-16T00:47:42.154Z,101922.34
2023-03-16T00:51:06.288Z,101918.88
2023-03-16T00:54:29.790Z,101922.38
2023-03-16T00:57:50.946Z,101919.81
2023-03-16T01:01:14.912Z,101916.31
2023-03-16T01:04:36.973Z,101916.38
2023-03-16T01:07:59.868Z,101913.75
2023-03-16T01:11:24.494Z,101917.28
2023-03-16T01:14:46.856Z,101918.19
2023-03-16T01:18:08.433Z,101915.56
2023-03-16T01:21:30.056Z,101924.25
2023-03-16T01:24:51.334Z,101926.97
2023-03-16T01:28:14.413Z,101916.47
2023-03-16T01:31:36.361Z,101921.66
2023-03-16T01:34:58.168Z,101919.00
2023-03-16T01:38:20.043Z,101925.06
2023-03-16T01:41:42.971Z,101918.09
2023-03-16T01:45:06.980Z,101918.09
2023-03-16T01:48:38.388Z,101924.25
2023-03-16T01:52:03.699Z,101919.91
2023-03-16T01:55:27.312Z,101915.56
2023-03-16T01:58:50.973Z,101916.47
2023-03-16T02:02:16.433Z,101913.91
2023-03-16T02:05:42.282Z,101903.44
2023-03-16T02:09:06.660Z,101913.03
2023-03-16T02:12:29.357Z,101914.75
2023-03-16T02:15:54.377Z,101909.53
2023-03-16T02:19:26.760Z,101909.50
2023-03-16T02:22:54.128Z,101914.69
2023-03-16T02:26:22.954Z,101909.44
2023-03-16T02:29:57.634Z,101913.75
2023-03-16T02:33:22.071Z,101904.09
2023-03-16T02:36:47.773Z,101909.34
2023-03-16T02:40:23.885Z,101912.84
2023-03-16T02:43:52.136Z,101918.09
2023-03-16T02:47:29.645Z,101922.59
2023-03-16T02:50:54.494Z,101919.97
2023-03-16T02:54:16.031Z,101927.91
2023-03-16T02:57:37.819Z,101925.31
2023-03-16T03:01:04.782Z,101936.72
2023-03-16T03:04:29.576Z,101936.81
2023-03-16T03:07:51.264Z,101936.88
2023-03-16T03:11:12.494Z,101939.50
2023-03-16T03:14:38.650Z,101933.47
2023-03-16T03:18:00.450Z,101937.84
2023-03-16T03:21:26.097Z,101937.94
2023-03-16T03:24:47.731Z,101939.72
2023-03-16T03:28:09.789Z,101951.97
2023-03-16T03:31:31.222Z,101942.41
2023-03-16T03:34:52.884Z,101952.94
2023-03-16T03:38:16.151Z,101951.22
2023-03-16T03:41:39.864Z,101951.25
2023-03-16T03:45:01.961Z,101947.78
2023-03-16T03:48:23.699Z,101949.56
2023-03-16T03:51:47.008Z,101953.09
2023-03-16T03:55:13.631Z,101954.81
2023-03-16T03:58:35.129Z,101960.06
2023-03-16T04:01:56.885Z,101960.91
2023-03-16T04:05:22.219Z,101958.19
2023-03-16T04:08:45.535Z,101965.13
2023-03-16T04:12:13.264Z,101964.25
2023-03-16T04:15:35.765Z,101967.78
2023-03-16T04:19:05.707Z,101973.97
2023-03-16T04:22:30.435Z,101977.47
2023-03-16T04:25:52.593Z,101979.28
2023-03-16T04:29:18.900Z,101981.06
2023-03-16T04:32:41.965Z,101982.78
2023-03-16T04:36:05.368Z,101983.69
2023-03-16T04:39:28.010Z,101992.47
2023-03-16T04:42:49.662Z,101990.00
2023-03-16T04:46:15.828Z,101995.31
2023-03-16T04:49:37.607Z,101986.69
2023-03-16T04:52:59.272Z,101992.94
2023-03-16T04:56:23.533Z,101988.66
2023-03-16T04:59:50.319Z,101998.28
2023-03-16T05:03:21.664Z,101998.38
2023-03-16T05:06:43.392Z,101993.19
2023-03-16T05:10:08.025Z,102000.25
2023-03-16T05:13:29.772Z,102000.38
2023-03-16T05:16:54.092Z,102001.31
2023-03-16T05:20:18.711Z,101996.22
2023-03-16T05:23:46.223Z,101991.91
2023-03-16T05:27:08.866Z,101998.06
2023-03-16T05:30:31.170Z,102001.59
2023-03-16T05:33:55.167Z,102010.31
2023-03-16T05:37:19.072Z,102009.50
2023-03-16T05:40:42.305Z,102022.63
2023-03-16T05:44:27.629Z,102015.66
2023-03-16T05:48:08.189Z,102020.84
2023-03-16T05:51:35.372Z,102026.06
2023-03-16T05:55:00.520Z,102021.63
2023-03-16T05:58:22.283Z,102026.81
2023-03-16T06:01:45.334Z,102030.25
2023-03-16T06:05:08.428Z,102032.78
2023-03-16T06:08:33.331Z,102027.53
2023-03-16T06:12:04.106Z,102019.69
2023-03-16T06:15:26.778Z,102028.38
2023-03-16T06:18:49.549Z,102032.59
2023-03-16T06:22:11.550Z,102037.78
2023-03-16T06:25:34.186Z,102035.97
2023-03-16T06:28:59.098Z,102037.66
2023-03-16T06:32:21.937Z,102044.47
2023-03-16T06:35:43.811Z,102058.25
2023-03-16T06:39:11.285Z,102061.66
2023-03-16T06:42:36.069Z,102071.97
2023-03-16T06:46:01.530Z,102071.75
2023-03-16T06:49:23.331Z,102069.94
2023-03-16T06:52:44.938Z,102081.97
2023-03-16T06:56:07.186Z,102082.66
2023-03-16T06:59:32.846Z,102086.84
2023-03-16T07:02:55.989Z,102086.63
2023-03-16T07:06:17.522Z,102091.66
2023-03-16T07:09:41.662Z,102099.38
2023-03-16T07:13:04.190Z,102100.91
2023-03-16T07:16:26.400Z,102100.63
2023-03-16T07:19:50.275Z,102101.38
2023-03-16T07:23:12.437Z,102095.91
2023-03-16T07:26:36.324Z,102100.91
2023-03-16T07:29:58.216Z,102106.81
2023-03-16T07:33:20.808Z,102114.47
2023-03-16T07:36:44.230Z,102120.44
2023-03-16T07:40:09.292Z,102117.53
2023-03-16T07:43:31.095Z,102127.78
2023-03-16T07:46:52.895Z,102117.03
2023-03-16T07:50:19.313Z,102130.84
2023-03-16T07:53:45.108Z,102125.34
2023-03-16T07:57:12.180Z,102126.88
2023-03-16T08:00:36.985Z,102131.03
2023-03-16T08:03:59.403Z,102121.16
2023-03-16T08:07:20.974Z,102125.19
2023-03-16T08:11:00.881Z,102123.09
2023-03-16T08:14:34.467Z,102127.16
2023-03-16T08:18:04.434Z,102121.59
2023-03-16T08:21:26.195Z,102120.41
2023-03-16T08:24:49.009Z,102119.19
2023-03-16T08:28:13.699Z,102120.63
2023-03-16T08:31:35.589Z,102116.84
2023-03-16T08:35:19.113Z,102131.44
2023-03-16T08:38:44.131Z,102132.06
2023-03-16T08:42:07.912Z,102139.75
2023-03-16T08:45:36.892Z,102142.91
2023-03-16T08:48:58.444Z,102147.03
2023-03-16T08:52:20.947Z,102143.28
2023-03-16T08:55:43.160Z,102145.56
2023-03-16T08:59:05.739Z,102143.44
2023-03-16T09:02:29.046Z,102151.97
2023-03-16T09:05:50.416Z,102154.28
2023-03-16T09:09:12.258Z,102152.13
2023-03-16T09:12:36.645Z,102153.59
2023-03-16T09:15:59.545Z,102144.41
2023-03-16T09:19:22.916Z,102142.47
2023-03-16T09:22:44.701Z,102145.63
2023-03-16T09:26:08.322Z,102147.88
2023-03-16T09:29:29.642Z,102148.41
2023-03-16T09:32:51.607Z,102155.97
2023-03-16T09:36:14.925Z,102155.34
2023-03-16T09:39:37.080Z,102148.81
2023-03-16T09:43:11.185Z,102149.22
2023-03-16T09:46:36.280Z,102157.81
2023-03-16T09:50:01.429Z,102167.16
2023-03-16T09:53:29.308Z,102169.44
2023-03-16T09:56:53.005Z,102167.19
2023-03-16T10:00:21.098Z,102175.97
2023-03-16T10:04:00.643Z,102177.50
2023-03-16T10:07:32.322Z,102168.53
2023-03-16T10:11:12.882Z,102161.41
2023-03-16T10:14:43.680Z,102169.97
2023-03-16T10:18:13.386Z,102168.06
2023-03-16T10:21:40.351Z,102166.22
2023-03-16T10:25:08.256Z,102173.84
2023-03-16T10:28:32.676Z,102161.91
2023-03-16T10:31:59.904Z,102160.69
2023-03-16T10:35:32.734Z,102156.09
2023-03-16T10:38:55.550Z,102151.16
2023-03-16T10:42:18.654Z,102142.13
2023-03-16T10:45:43.938Z,102160.50
2023-03-16T10:49:05.656Z,102154.03
2023-03-16T10:52:35.468Z,102143.84
2023-03-16T10:55:59.845Z,102141.63
2023-03-16T10:59:30.356Z,102142.28
2023-03-16T11:02:55.380Z,102141.50
2023-03-16T11:06:22.568Z,102138.69
2023-03-16T11:09:45.024Z,102141.75
2023-03-16T11:13:15.893Z,102135.91
2023-03-16T11:16:42.727Z,102126.56
2023-03-16T11:20:13.250Z,102122.44
2023-03-16T11:23:38.471Z,102113.66
2023-03-16T11:27:03.419Z,102116.22
2023-03-16T11:30:30.986Z,102115.13
2023-03-16T11:33:55.538Z,102115.78
2023-03-16T11:37:31.852Z,102106.50
2023-03-16T11:40:58.263Z,102108.50
2023-03-16T11:44:27.626Z,102097.44
2023-03-16T11:48:21.340Z,102101.25
2023-03-16T11:51:48.979Z,102102.31
2023-03-16T11:55:25.372Z,102096.41
2023-03-16T11:58:59.077Z,102093.47
2023-03-16T12:02:46.330Z,102085.38
2023-03-16T12:06:23.384Z,102081.63
2023-03-16T12:10:20.134Z,102073.41
2023-03-16T12:14:09.006Z,102071.28
2023-03-16T12:17:35.162Z,102068.22
2023-03-16T12:21:00.847Z,102075.31
2023-03-16T12:24:28.038Z,102073.34
2023-03-16T12:27:53.526Z,102067.44
2023-03-16T12:31:20.546Z,102066.19
2023-03-16T12:34:49.180Z,102058.00
2023-03-16T12:38:37.390Z,102057.13
2023-03-16T12:42:11.928Z,102054.53
2023-03-16T12:45:41.132Z,102056.91
2023-03-16T12:49:07.531Z,102044.06
2023-03-16T12:52:39.940Z,102043.56
2023-03-16T12:56:08.761Z,102036.56
2023-03-16T12:59:40.066Z,102034.69
2023-03-16T13:03:02.343Z,102034.19
2023-03-16T13:06:26.057Z,102025.09
2023-03-16T13:09:52.749Z,102032.66
2023-03-16T13:13:16.144Z,102023.41
2023-03-16T13:16:40.043Z,102027.38
2023-03-16T13:20:31.140Z,102023.41
2023-03-16T13:23:58.214Z,102024.97
2023-03-16T13:27:25.175Z,102022.09
2023-03-16T13:30:49.433Z,102020.91
2023-03-16T13:34:16.356Z,102020.44
2023-03-16T13:37:41.742Z,102020.25
2023-03-16T13:41:10.413Z,102013.88
2023-03-16T13:44:33.193Z,102019.84
2023-03-16T13:47:54.992Z,102027.56
2023-03-16T13:51:20.846Z,102036.28
2023-03-16T13:54:42.529Z,102034.22
2023-03-16T13:58:06.211Z,102034.91
2023-03-16T14:01:31.123Z,102031.97
2023-03-16T14:04:53.098Z,102023.81
2023-03-16T14:08:17.894Z,102018.50
2023-03-16T14:11:39.290Z,102016.53
2023-03-16T14:15:07.293Z,102010.16
2023-03-16T14:18:36.041Z,102002.19
2023-03-16T14:21:57.707Z,101990.63
2023-03-16T14:25:23.729Z,101989.59
2023-03-16T14:28:57.373Z,101990.47
2023-03-16T14:32:28.466Z,101983.25
2023-03-16T14:35:56.293Z,101980.31
2023-03-16T14:39:22.782Z,101975.69
2023-03-16T14:42:44.535Z,101978.53
2023-03-16T14:46:07.297Z,101970.25
2023-03-16T14:49:33.192Z,101961.25
2023-03-16T14:52:57.399Z,101960.31
2023-03-16T14:56:18.968Z,101965.34
2023-03-16T14:59:41.040Z,101950.06
2023-03-16T15:03:06.329Z,101937.53
2023-03-16T15:06:31.184Z,101933.53
2023-03-16T15:09:55.152Z,101933.19
2023-03-16T15:13:34.700Z,101935.53
2023-03-16T15:16:56.003Z,101936.78
2023-03-16T15:20:19.741Z,101935.56
2023-03-16T15:23:43.953Z,101929.16
2023-03-16T15:27:11.121Z,101931.56
2023-03-16T15:30:35.309Z,101930.19
2023-03-16T15:33:56.938Z,101922.50
2023-03-16T15:37:20.461Z,101926.47
2023-03-16T15:40:45.693Z,101922.97
2023-03-16T15:44:13.638Z,101918.53
2023-03-16T15:47:35.392Z,101920.41
2023-03-16T15:50:59.748Z,101924.72
2023-03-16T15:54:22.165Z,101916.09
2023-03-16T15:57:46.365Z,101910.63
2023-03-16T16:01:09.002Z,101913.38
2023-03-16T16:04:30.598Z,101920.63
2023-03-16T16:07:52.554Z,101910.66
2023-03-16T16:11:16.744Z,101897.94
2023-03-16T16:14:40.464Z,101898.53
2023-03-16T16:18:20.544Z,101904.28
2023-03-16T16:21:43.856Z,101903.63
2023-03-16T16:25:05.838Z,101897.56
2023-03-16T16:28:31.651Z,101903.09
2023-03-16T16:31:55.272Z,101909.91
2023-03-16T16:35:19.539Z,101914.97
2023-03-16T16:38:41.180Z,101909.81
2023-03-16T16:42:02.797Z,101903.56
2023-03-16T16:45:26.464Z,101910.22
2023-03-16T16:48:51.101Z,101911.88
2023-03-16T16:52:15.381Z,101900.97
2023-03-16T16:55:36.696Z,101912.97
2023-03-16T16:58:58.909Z,101910.63
2023-03-16T17:02:31.357Z,101909.91
2023-03-16T17:05:56.028Z,101903.75
2023-03-16T17:09:18.123Z,101902.94
2023-03-16T17:12:40.026Z,101900.50
2023-03-16T17:16:01.677Z,101902.22
2023-03-16T17:19:25.044Z,101900.50
2023-03-16T17:22:49.768Z,101895.25
2023-03-16T17:26:17.540Z,101897.03
2023-03-16T17:29:39.124Z,101904.91
2023-03-16T17:33:06.454Z,101905.53
2023-03-16T17:36:28.131Z,101911.38
2023-03-16T17:39:51.863Z,101911.16
2023-03-16T17:43:16.088Z,101912.59
2023-03-16T17:46:38.098Z,101916.81
2023-03-16T17:49:59.840Z,101928.03
2023-03-16T17:53:22.656Z,101930.44
2023-03-16T17:56:47.393Z,101926.66
2023-03-16T18:00:21.948Z,101928.03
2023-03-16T18:03:45.911Z,101932.22
2023-03-16T18:07:14.184Z,101938.13
2023-03-16T18:10:37.432Z,101928.94
2023-03-16T18:14:00.151Z,101922.50
2023-03-16T18:17:27.958Z,101917.59
2023-03-16T18:20:50.693Z,101917.16
2023-03-16T18:24:15.810Z,101919.44
2023-03-16T18:27:37.795Z,101917.16
2023-03-16T18:31:02.170Z,101922.00
2023-03-16T18:34:25.180Z,101908.16
2023-03-16T18:37:46.985Z,101909.25
2023-03-16T18:41:16.780Z,101895.28
2023-03-16T18:44:38.643Z,101890.25
2023-03-16T18:48:01.935Z,101894.84
2023-03-16T18:51:24.425Z,101898.50
2023-03-16T18:54:48.134Z,101890.84
2023-03-16T18:58:16.676Z,101896.41
2023-03-16T19:01:41.845Z,101890.41
2023-03-16T19:05:08.866Z,101882.53
2023-03-16T19:08:31.082Z,101880.91
2023-03-16T19:11:53.133Z,101886.25
2023-03-16T19:15:19.834Z,101891.63
2023-03-16T19:18:42.821Z,101898.88
2023-03-16T19:22:09.857Z,101885.88
2023-03-16T19:25:36.102Z,101881.69
2023-03-16T19:28:57.928Z,101884.59
2023-03-16T19:32:20.612Z,101882.97
2023-03-16T19:35:51.392Z,101890.19
2023-03-16T19:39:16.991Z,101878.94
2023-03-16T19:42:40.705Z,101880.94
2023-03-16T19:46:02.550Z,101890.97
2023-03-16T19:49:26.192Z,101888.69
2023-03-16T19:52:48.952Z,101886.38
2023-03-16T19:56:16.275Z,101878.81
2023-03-16T19:59:39.106Z,101873.25
2023-03-16T20:03:01.537Z,101877.25
2023-03-16T20:06:24.462Z,101867.09
2023-03-16T20:09:46.631Z,101872.66
2023-03-16T20:13:12.512Z,101859.69
2023-03-16T20:16:35.646Z,101865.94
2023-03-16T20:19:58.363Z,101852.88
2023-03-16T20:23:22.943Z,101844.94
2023-03-16T20:26:46.309Z,101858.16
2023-03-16T20:30:16.648Z,101864.19
2023-03-16T20:33:38.152Z,101850.72
2023-03-16T20:37:01.144Z,101861.09
2023-03-16T20:40:23.846Z,101864.38
2023-03-16T20:43:46.029Z,101864.97
2023-03-16T20:47:14.894Z,101864.72
2023-03-16T20:50:36.973Z,101866.25
2023-03-16T20:53:58.511Z,101872.16
2023-03-16T20:57:22.735Z,101863.16
2023-03-16T21:00:45.621Z,101863.78
2023-03-16T21:04:20.748Z,101866.16
2023-03-16T21:07:42.552Z,101859.81
2023-03-16T21:11:03.911Z,101858.81
2023-03-16T21:14:26.363Z,101864.81
2023-03-16T21:17:52.621Z,101858.50
2023-03-16T21:21:17.188Z,101852.22
2023-03-16T21:24:38.684Z,101844.97
2023-03-16T21:28:05.462Z,101838.69
2023-03-16T21:31:27.912Z,101839.47
2023-03-16T21:34:50.409Z,101830.59
2023-03-16T21:38:15.198Z,101829.66
2023-03-16T21:41:37.923Z,101826.06
2023-03-16T21:44:59.517Z,101815.50
2023-03-16T21:48:23.220Z,101804.06
2023-03-16T21:51:44.789Z,101799.47
2023-03-16T21:55:23.188Z,101798.69
2023-03-16T21:58:45.671Z,101788.88
2023-03-16T22:02:19.493Z,101783.53
2023-03-16T22:05:42.756Z,101779.06
2023-03-16T22:09:05.859Z,101777.28
2023-03-16T22:12:29.026Z,101779.06
2023-03-16T22:15:52.837Z,101791.53
2023-03-16T22:19:15.960Z,101770.50
2023-03-16T22:22:37.557Z,101767.09
2023-03-16T22:25:59.860Z,101768.81
2023-03-16T22:29:25.422Z,101766.25
2023-03-16T22:32:48.964Z,101768.97
2023-03-16T22:36:12.822Z,101756.66
2023-03-16T22:39:38.803Z,101739.25
2023-03-16T22:43:04.363Z,101733.25
2023-03-16T22:46:29.266Z,101734.28
2023-03-16T22:49:51.068Z,101753.00
2023-03-16T22:53:20.002Z,101742.53
2023-03-16T22:56:44.225Z,101748.81
2023-03-16T23:00:11.148Z,101747.16
2023-03-16T23:03:34.263Z,101742.94
2023-03-16T23:06:55.858Z,101742.25
2023-03-16T23:10:18.815Z,101722.84
2023-03-16T23:13:40.544Z,101722.84
2023-03-16T23:17:01.886Z,101729.84
2023-03-16T23:20:28.479Z,101725.50
2023-03-16T23:24:03.220Z,101735.31
2023-03-16T23:27:25.831Z,101725.81
2023-03-16T23:30:47.864Z,101742.59
2023-03-16T23:34:13.943Z,101740.97
2023-03-16T23:37:36.624Z,101738.47
2023-03-16T23:40:58.388Z,101735.00
2023-03-16T23:44:23.438Z,101728.00
2023-03-16T23:47:45.153Z,101721.22
2023-03-16T23:51:07.740Z,101714.16
2023-03-16T23:54:32.745Z,101702.63
2023-03-16T23:57:54.671Z,101699.13
